Time;durP1;ratioP1;P1;durP2;ratioP2;P2;SDS_P1;SDS_P2;PMS_P1;PMS_P2;Temp;Humidity;BMP_temperature;BMP_pressure;BME280_temperature;BME280_humidity;BME280_pressure;Samples;Min_cycle;Max_cycle;Signal;HPM_P1;HPM_P2
2021/04/16 00:02:52;;;;;;;14.60;7.47;;;22.80;33.30;;;;;;6184327;27;80421;-63
2021/04/16 00:05:53;;;;;;;11.43;7.30;;;22.80;33.30;;;;;;6206839;27;80677;-63
2021/04/16 00:08:53;;;;;;;14.65;7.78;;;22.80;33.40;;;;;;6210395;28;82085;-63
2021/04/16 00:11:54;;;;;;;12.18;7.47;;;22.80;33.30;;;;;;6199301;28;80516;-63
2021/04/16 00:14:54;;;;;;;11.18;6.60;;;22.80;33.40;;;;;;6187993;28;80709;-63
2021/04/16 00:17:55;;;;;;;13.40;7.60;;;22.80;33.40;;;;;;6193902;28;80889;-64
2021/04/16 00:20:55;;;;;;;12.23;6.93;;;22.70;33.00;;;;;;6207342;28;80914;-64
2021/04/16 00:23:56;;;;;;;10.55;6.68;;;22.80;32.90;;;;;;6202680;28;80410;-65
2021/04/16 00:26:57;;;;;;;9.73;6.53;;;22.70;33.40;;;;;;6199405;28;80156;-65
2021/04/16 00:29:58;;;;;;;10.90;6.05;;;22.80;33.40;;;;;;6205858;27;81147;-64
2021/04/16 00:32:58;;;;;;;10.15;6.22;;;22.70;33.60;;;;;;6219390;28;80728;-65
2021/04/16 00:35:59;;;;;;;10.32;6.18;;;22.80;33.50;;;;;;6223541;27;80703;-63
2021/04/16 00:38:59;;;;;;;10.30;6.25;;;22.70;33.10;;;;;;6215446;28;81383;-63
2021/04/16 00:42:00;;;;;;;9.70;6.43;;;22.70;33.60;;;;;;6200965;28;82545;-64
2021/04/16 00:45:00;;;;;;;9.23;5.47;;;22.70;33.00;;;;;;6193049;28;81070;-64
2021/04/16 00:48:01;;;;;;;10.65;5.82;;;22.70;33.30;;;;;;6201793;28;80380;-64
2021/04/16 00:51:01;;;;;;;9.18;5.78;;;22.70;33.10;;;;;;6203449;28;81046;-65
2021/04/16 00:54:02;;;;;;;9.70;6.05;;;22.70;33.20;;;;;;6185114;28;80696;-65
2021/04/16 00:57:02;;;;;;;10.27;6.10;;;22.70;33.40;;;;;;6191021;28;80978;-64
2021/04/16 01:00:03;;;;;;;9.77;6.10;;;22.70;33.20;;;;;;6210220;28;80921;-64
2021/04/16 01:03:03;;;;;;;8.60;5.50;;;22.70;33.60;;;;;;6210663;27;81138;-64
2021/04/16 01:06:04;;;;;;;10.85;6.07;;;22.70;33.00;;;;;;6202781;28;80445;-64
2021/04/16 01:09:04;;;;;;;8.50;5.25;;;22.70;33.80;;;;;;6195368;28;80772;-64
2021/04/16 01:12:05;;;;;;;8.13;5.38;;;22.70;33.50;;;;;;6211794;28;82785;-64
2021/04/16 01:15:15;;;;;;;8.43;5.22;;;22.70;33.00;;;;;;6203104;28;81547;-64
2021/04/16 01:18:15;;;;;;;8.18;5.70;;;22.70;34.50;;;;;;6190933;27;80606;-64
2021/04/16 01:21:16;;;;;;;9.15;5.38;;;22.70;33.40;;;;;;6203847;27;81530;-63
2021/04/16 01:24:16;;;;;;;9.90;5.70;;;22.70;33.40;;;;;;6204995;28;80803;-64
2021/04/16 01:27:17;;;;;;;9.82;6.70;;;22.70;33.90;;;;;;6199915;28;80690;-64
2021/04/16 01:30:17;;;;;;;7.78;5.00;;;22.70;33.00;;;;;;6203088;28;80384;-64
2021/04/16 01:33:18;;;;;;;7.63;5.32;;;22.70;33.20;;;;;;6224973;27;83563;-64
2021/04/16 01:36:18;;;;;;;7.97;5.13;;;22.70;33.50;;;;;;6214700;28;81469;-64
2021/04/16 01:39:19;;;;;;;6.35;4.55;;;22.70;33.30;;;;;;6194622;27;80582;-64
2021/04/16 01:42:19;;;;;;;6.80;4.55;;;22.70;32.80;;;;;;6203724;28;81182;-65
2021/04/16 01:45:20;;;;;;;6.95;4.70;;;22.70;32.80;;;;;;6214697;28;81201;-64
2021/04/16 01:48:20;;;;;;;7.13;4.95;;;22.70;33.20;;;;;;6196080;27;83262;-63
2021/04/16 01:51:21;;;;;;;6.68;4.82;;;22.70;33.20;;;;;;6193777;28;80683;-63
2021/04/16 01:54:21;;;;;;;7.05;4.85;;;22.70;33.10;;;;;;6196072;28;80916;-64
2021/04/16 01:57:22;;;;;;;8.57;4.85;;;22.70;33.00;;;;;;6208730;28;81465;-64
2021/04/16 02:00:22;;;;;;;6.35;4.30;;;22.70;32.90;;;;;;6210744;28;80864;-64
2021/04/16 02:03:23;;;;;;;7.72;4.80;;;22.60;33.10;;;;;;6220476;28;81203;-63
2021/04/16 02:06:23;;;;;;;6.50;4.47;;;22.70;33.30;;;;;;6214731;28;82624;-63
2021/04/16 02:09:24;;;;;;;5.57;4.32;;;22.60;32.80;;;;;;6201422;27;80969;-64
2021/04/16 02:12:24;;;;;;;7.55;4.90;;;22.70;33.00;;;;;;6193261;28;80792;-63
2021/04/16 02:15:25;;;;;;;7.90;4.95;;;22.60;32.80;;;;;;6205840;28;80644;-64
2021/04/16 02:18:25;;;;;;;7.25;4.25;;;22.60;32.90;;;;;;6196052;28;80869;-65
2021/04/16 02:21:26;;;;;;;6.82;4.00;;;22.60;32.70;;;;;;6186746;28;80824;-63
2021/04/16 02:24:26;;;;;;;5.78;4.18;;;22.60;32.80;;;;;;6199337;28;80462;-63
2021/04/16 02:27:27;;;;;;;8.45;4.20;;;22.60;32.90;;;;;;6199850;28;80795;-63
2021/04/16 02:30:28;;;;;;;8.57;4.38;;;22.60;33.00;;;;;;6205701;28;80480;-63
2021/04/16 02:33:28;;;;;;;6.88;4.40;;;22.60;33.20;;;;;;6210725;28;82663;-63
2021/04/16 02:36:29;;;;;;;7.55;4.38;;;22.60;33.20;;;;;;6201442;28;80690;-62
2021/04/16 02:39:29;;;;;;;8.48;4.57;;;22.60;32.90;;;;;;6203056;28;80694;-62
2021/04/16 02:42:30;;;;;;;6.45;4.20;;;22.60;32.80;;;;;;6202120;28;80754;-62
2021/04/16 02:45:30;;;;;;;5.93;4.03;;;22.60;33.30;;;;;;6204807;28;82162;-62
2021/04/16 02:48:31;;;;;;;6.88;4.85;;;22.60;32.80;;;;;;6205292;28;81219;-64
2021/04/16 02:51:31;;;;;;;6.57;4.50;;;22.60;32.90;;;;;;6202551;28;80928;-64
2021/04/16 02:54:32;;;;;;;6.63;4.50;;;22.60;32.70;;;;;;6215181;28;80869;-64
2021/04/16 02:57:32;;;;;;;6.93;4.70;;;22.60;32.30;;;;;;6207429;27;80541;-64
2021/04/16 03:00:33;;;;;;;6.25;3.90;;;22.60;32.70;;;;;;6216139;28;81191;-64
2021/04/16 03:03:35;;;;;;;7.85;5.03;;;22.60;32.50;;;;;;6209777;27;81337;-64
2021/04/16 03:06:35;;;;;;;6.82;4.60;;;22.60;32.80;;;;;;6200141;28;80901;-65
2021/04/16 03:09:36;;;;;;;7.50;4.88;;;22.60;32.50;;;;;;6200926;28;80824;-64
2021/04/16 03:12:36;;;;;;;5.90;4.45;;;22.60;32.70;;;;;;6211339;28;80715;-63
2021/04/16 03:15:37;;;;;;;8.23;4.90;;;22.60;33.00;;;;;;6210167;28;80464;-64
2021/04/16 03:18:37;;;;;;;6.70;4.63;;;22.60;32.90;;;;;;6206893;28;80853;-64
2021/04/16 03:21:38;;;;;;;7.93;5.03;;;22.60;32.80;;;;;;6201397;28;80992;-64
2021/04/16 03:24:38;;;;;;;8.98;5.50;;;22.70;32.50;;;;;;6213202;27;81232;-64
2021/04/16 03:27:39;;;;;;;9.82;5.70;;;22.60;31.50;;;;;;6192977;28;81526;-64
2021/04/16 03:30:40;;;;;;;6.35;4.40;;;22.70;31.70;;;;;;6196553;27;80605;-64
2021/04/16 03:33:40;;;;;;;7.70;5.43;;;22.60;31.80;;;;;;6190132;28;81266;-64
2021/04/16 03:36:41;;;;;;;7.20;4.90;;;22.60;31.60;;;;;;6203343;28;80428;-64
2021/04/16 03:39:41;;;;;;;9.55;5.22;;;22.70;31.50;;;;;;6196552;28;80785;-64
2021/04/16 03:42:42;;;;;;;8.75;5.35;;;22.70;31.40;;;;;;6200992;28;80427;-64
2021/04/16 03:45:42;;;;;;;6.57;4.88;;;22.70;31.30;;;;;;6208575;28;83554;-63
2021/04/16 03:48:43;;;;;;;9.63;5.78;;;22.80;31.20;;;;;;6212502;28;80698;-64
2021/04/16 03:51:43;;;;;;;7.88;5.82;;;22.80;31.10;;;;;;6201585;27;80772;-63
2021/04/16 03:54:44;;;;;;;8.15;5.80;;;22.80;31.10;;;;;;6186203;28;81570;-63
2021/04/16 03:57:44;;;;;;;9.93;5.68;;;22.80;31.00;;;;;;6197640;28;82158;-63
2021/04/16 04:00:45;;;;;;;8.68;5.10;;;22.80;30.90;;;;;;6199985;28;80767;-63
2021/04/16 04:03:45;;;;;;;6.97;4.97;;;22.80;30.90;;;;;;6210210;28;80955;-64
2021/04/16 04:06:46;;;;;;;8.25;5.05;;;22.90;30.90;;;;;;6212762;28;81163;-63
2021/04/16 04:09:46;;;;;;;9.23;5.93;;;22.90;30.90;;;;;;6219534;28;81513;-63
2021/04/16 04:12:47;;;;;;;7.07;5.00;;;22.90;30.90;;;;;;6211448;27;80681;-63
2021/04/16 04:15:47;;;;;;;6.65;4.78;;;22.90;30.90;;;;;;6205382;28;85370;-64
2021/04/16 04:18:48;;;;;;;7.13;5.10;;;22.90;30.80;;;;;;6199212;28;84031;-64
2021/04/16 04:21:48;;;;;;;7.43;5.13;;;22.90;30.80;;;;;;6202139;28;81000;-64
2021/04/16 04:24:49;;;;;;;7.88;5.45;;;22.90;30.70;;;;;;6201655;28;80436;-65
2021/04/16 04:27:50;;;;;;;7.07;5.30;;;22.90;30.60;;;;;;6200841;28;82681;-65
2021/04/16 04:30:51;;;;;;;7.18;4.88;;;23.00;30.70;;;;;;6204688;28;80654;-64
2021/04/16 04:33:51;;;;;;;8.30;5.55;;;23.00;30.70;;;;;;6191251;28;80759;-64
2021/04/16 04:36:52;;;;;;;7.38;5.00;;;22.90;30.60;;;;;;6199619;28;85449;-61
2021/04/16 04:39:52;;;;;;;6.47;4.85;;;23.00;30.80;;;;;;6215849;28;81627;-62
2021/04/16 04:42:53;;;;;;;9.90;5.53;;;23.00;30.60;;;;;;6210061;28;82747;-64
2021/04/16 04:45:53;;;;;;;10.93;7.10;;;23.00;30.60;;;;;;6200591;27;80892;-66
2021/04/16 04:48:54;;;;;;;9.10;6.55;;;23.00;31.10;;;;;;6217989;27;80674;-66
2021/04/16 04:51:54;;;;;;;10.35;6.50;;;23.00;30.90;;;;;;6223948;28;80807;-66
2021/04/16 04:54:55;;;;;;;10.38;6.57;;;23.00;31.00;;;;;;6204655;27;80645;-65
2021/04/16 04:57:57;;;;;;;7.70;5.57;;;23.00;30.90;;;;;;6204047;28;80695;-65
2021/04/16 05:00:58;;;;;;;11.10;5.20;;;23.00;30.90;;;;;;6202936;27;80719;-66
2021/04/16 05:03:58;;;;;;;14.90;6.15;;;23.00;30.90;;;;;;6214860;28;81298;-64
2021/04/16 05:06:59;;;;;;;8.40;5.88;;;23.00;30.90;;;;;;6194292;28;80844;-66
2021/04/16 05:09:59;;;;;;;7.82;5.15;;;23.00;31.40;;;;;;6196779;28;80911;-68
2021/04/16 05:13:00;;;;;;;8.68;5.90;;;23.00;31.40;;;;;;6200020;28;80590;-67
2021/04/16 05:16:00;;;;;;;12.20;6.15;;;23.00;32.00;;;;;;6200967;28;80745;-68
2021/04/16 05:19:02;;;;;;;8.32;5.75;;;23.00;31.80;;;;;;6200364;28;80302;-68
2021/04/16 05:22:04;;;;;;;10.07;5.40;;;23.00;32.30;;;;;;6202490;28;80429;-68
2021/04/16 05:25:05;;;;;;;10.77;5.63;;;23.00;32.30;;;;;;6196795;28;83856;-68
2021/04/16 05:28:05;;;;;;;6.55;5.18;;;23.00;32.50;;;;;;6225898;28;81244;-66
2021/04/16 05:31:06;;;;;;;10.02;5.80;;;23.00;32.50;;;;;;6206081;28;82019;-68
2021/04/16 05:34:06;;;;;;;13.32;5.60;;;23.00;33.10;;;;;;6206417;27;81260;-67
2021/04/16 05:37:07;;;;;;;9.25;5.57;;;23.00;33.40;;;;;;6196318;27;80589;-68
2021/04/16 05:40:07;;;;;;;8.25;5.25;;;23.00;33.80;;;;;;6192532;27;80767;-68
2021/04/16 05:43:08;;;;;;;7.88;5.57;;;23.00;34.00;;;;;;6190829;28;81654;-68
2021/04/16 05:46:08;;;;;;;10.35;5.70;;;23.00;34.00;;;;;;6204291;28;81078;-68
2021/04/16 05:49:09;;;;;;;11.00;5.30;;;23.00;34.30;;;;;;6205894;28;81927;-68
2021/04/16 05:52:10;;;;;;;7.25;5.47;;;23.00;34.30;;;;;;6212455;28;82782;-68
2021/04/16 05:55:11;;;;;;;10.30;5.40;;;23.00;34.10;;;;;;6174391;28;80884;-69
2021/04/16 05:58:11;;;;;;;8.82;5.47;;;23.00;34.60;;;;;;6202503;27;80847;-68
2021/04/16 06:01:12;;;;;;;7.82;5.13;;;23.00;34.50;;;;;;6194312;27;81203;-69
2021/04/16 06:04:13;;;;;;;8.30;5.03;;;23.10;34.60;;;;;;6213194;27;80959;-69
2021/04/16 06:07:13;;;;;;;6.80;4.90;;;23.00;34.50;;;;;;6197952;28;80718;-68
2021/04/16 06:10:14;;;;;;;7.85;5.03;;;23.00;34.40;;;;;;6200040;28;80599;-69
2021/04/16 06:13:14;;;;;;;6.65;4.55;;;23.00;34.50;;;;;;6213809;28;81297;-67
2021/04/16 06:16:15;;;;;;;8.27;4.85;;;23.00;34.30;;;;;;6197813;27;81640;-69
2021/04/16 06:19:15;;;;;;;6.60;4.78;;;23.10;34.30;;;;;;6194324;27;80547;-68
2021/04/16 06:22:16;;;;;;;9.05;4.85;;;23.10;34.20;;;;;;6192526;27;80949;-68
2021/04/16 06:25:16;;;;;;;6.07;4.43;;;23.10;33.70;;;;;;6200083;28;81133;-68
2021/04/16 06:28:17;;;;;;;7.82;4.95;;;23.10;33.80;;;;;;6207052;27;80759;-70
2021/04/16 06:31:18;;;;;;;8.63;4.90;;;23.10;33.70;;;;;;6220729;28;80545;-68
2021/04/16 06:34:19;;;;;;;16.85;5.03;;;23.10;33.90;;;;;;6203865;28;80673;-69
2021/04/16 06:37:19;;;;;;;9.02;5.13;;;23.10;34.20;;;;;;6199359;28;81543;-67
2021/04/16 06:40:20;;;;;;;7.00;4.72;;;23.00;34.00;;;;;;6207661;27;81312;-71
2021/04/16 06:43:20;;;;;;;11.80;5.35;;;23.00;35.10;;;;;;6194430;28;80279;-75
2021/04/16 06:46:21;;;;;;;7.10;4.40;;;23.00;35.00;;;;;;6219833;28;81719;-72
2021/04/16 06:49:21;;;;;;;16.60;4.78;;;23.00;34.40;;;;;;6199856;27;81350;-71
2021/04/16 06:52:23;;;;;;;7.55;4.90;;;23.00;34.50;;;;;;6225159;28;80712;-70
2021/04/16 06:55:24;;;;;;;7.93;4.45;;;23.00;34.80;;;;;;6222274;27;81142;-67
2021/04/16 06:58:24;;;;;;;9.18;5.35;;;23.00;34.70;;;;;;6199260;27;80690;-69
2021/04/16 07:01:25;;;;;;;9.77;5.20;;;23.00;35.40;;;;;;6200387;28;80777;-70
2021/04/16 07:04:25;;;;;;;8.43;4.88;;;23.00;36.00;;;;;;6201184;28;83089;-69
2021/04/16 07:07:26;;;;;;;16.35;5.30;;;23.00;35.40;;;;;;6199434;28;80423;-70
2021/04/16 07:10:26;;;;;;;10.23;5.03;;;22.90;35.50;;;;;;6219819;28;81243;-73
2021/04/16 07:13:27;;;;;;;8.18;4.95;;;22.90;34.90;;;;;;6195758;27;80800;-70
2021/04/16 07:16:27;;;;;;;9.60;4.53;;;22.90;34.40;;;;;;6198522;28;83865;-69
2021/04/16 07:19:28;;;;;;;7.43;5.00;;;22.90;35.20;;;;;;6196567;28;80826;-68
2021/04/16 07:22:28;;;;;;;17.05;4.38;;;23.00;35.60;;;;;;6232815;28;80957;-69
2021/04/16 07:25:29;;;;;;;8.45;4.90;;;23.00;35.10;;;;;;6206851;28;80529;-69
2021/04/16 07:28:30;;;;;;;7.43;5.00;;;22.90;35.50;;;;;;6204185;27;80507;-69
2021/04/16 07:31:32;;;;;;;8.30;5.28;;;22.90;34.40;;;;;;6201074;28;80782;-69
2021/04/16 07:34:32;;;;;;;9.95;4.63;;;22.90;35.40;;;;;;6199661;27;83019;-70
2021/04/16 07:37:33;;;;;;;7.32;4.63;;;23.00;35.60;;;;;;6214255;28;83359;-69
2021/04/16 07:40:33;;;;;;;10.25;5.03;;;23.00;34.50;;;;;;6207817;28;89320;-68
2021/04/16 07:43:34;;;;;;;6.03;3.80;;;22.90;33.80;;;;;;6196441;28;80797;-68
2021/04/16 07:46:35;;;;;;;6.72;4.30;;;23.00;33.60;;;;;;6202790;28;81666;-69
2021/04/16 07:49:35;;;;;;;10.15;5.30;;;22.90;33.10;;;;;;6200970;27;80756;-69
2021/04/16 07:52:36;;;;;;;7.07;4.25;;;22.90;33.00;;;;;;6212903;28;80897;-69
2021/04/16 07:55:36;;;;;;;7.47;5.30;;;22.90;33.00;;;;;;6194033;28;80454;-70
2021/04/16 07:58:37;;;;;;;7.60;4.80;;;22.90;32.90;;;;;;6197075;28;82953;-71
2021/04/16 08:01:40;;;;;;;7.85;4.45;;;22.90;32.80;;;;;;6219104;28;80347;-69
2021/04/16 08:04:41;;;;;;;8.05;4.53;;;22.90;32.60;;;;;;6196025;28;84752;-69
2021/04/16 08:07:41;;;;;;;7.50;4.82;;;23.00;32.60;;;;;;6204885;28;81466;-68
2021/04/16 08:10:42;;;;;;;8.43;4.40;;;23.00;33.00;;;;;;6197852;28;80807;-72
2021/04/16 08:13:42;;;;;;;8.15;4.70;;;23.00;32.50;;;;;;6218387;27;82043;-71
2021/04/16 08:16:43;;;;;;;7.32;4.72;;;23.00;32.20;;;;;;6212931;27;80412;-69
2021/04/16 08:19:43;;;;;;;7.28;4.50;;;23.00;32.30;;;;;;6225733;27;81747;-69
2021/04/16 08:22:44;;;;;;;7.50;5.22;;;23.10;32.00;;;;;;6219397;27;80947;-69
2021/04/16 08:25:44;;;;;;;6.90;5.10;;;23.10;31.90;;;;;;6214402;27;81566;-69
2021/04/16 08:28:45;;;;;;;8.73;4.78;;;23.10;31.70;;;;;;6218236;28;81180;-69
2021/04/16 08:31:45;;;;;;;9.20;4.35;;;23.20;31.60;;;;;;6225993;28;80767;-71
2021/04/16 08:34:49;;;;;;;8.00;4.90;;;23.20;31.50;;;;;;6219899;28;80514;-69
2021/04/16 08:37:49;;;;;;;6.78;5.07;;;23.20;31.40;;;;;;6225813;28;80583;-69
2021/04/16 08:40:50;;;;;;;7.93;4.68;;;23.20;31.30;;;;;;6220031;27;81061;-69
2021/04/16 08:43:50;;;;;;;7.05;4.40;;;23.20;31.30;;;;;;6197858;28;80744;-70
2021/04/16 08:46:51;;;;;;;8.38;4.82;;;23.20;31.20;;;;;;6194726;28;81079;-69
2021/04/16 08:49:51;;;;;;;9.20;5.35;;;23.20;31.10;;;;;;6197555;28;80355;-71
2021/04/16 08:52:52;;;;;;;7.00;5.20;;;23.20;31.00;;;;;;6199076;28;80408;-70
2021/04/16 08:55:53;;;;;;;10.38;5.68;;;23.30;31.00;;;;;;6212068;28;81090;-71
2021/04/16 08:58:53;;;;;;;9.48;4.55;;;23.30;31.00;;;;;;6211926;28;80707;-70
2021/04/16 09:01:54;;;;;;;6.38;5.07;;;23.30;30.90;;;;;;6190822;28;81994;-69
2021/04/16 09:04:54;;;;;;;8.55;5.15;;;23.30;31.00;;;;;;6193155;27;80634;-69
2021/04/16 09:07:55;;;;;;;9.60;4.68;;;23.30;31.10;;;;;;6223729;27;80661;-68
2021/04/16 09:10:55;;;;;;;10.50;5.82;;;23.30;30.90;;;;;;6181392;28;82667;-68
2021/04/16 09:13:56;;;;;;;8.18;5.47;;;23.30;31.00;;;;;;6197651;28;80359;-69
2021/04/16 09:16:57;;;;;;;11.27;5.78;;;23.30;30.90;;;;;;6194374;28;80641;-70
2021/04/16 09:19:58;;;;;;;8.30;5.00;;;23.30;31.10;;;;;;6212807;27;81168;-69
2021/04/16 09:22:58;;;;;;;7.32;4.68;;;23.30;31.10;;;;;;6221862;28;80720;-69
2021/04/16 09:25:59;;;;;;;8.48;5.05;;;23.30;31.10;;;;;;6218353;28;80744;-70
2021/04/16 09:28:59;;;;;;;5.75;4.55;;;23.30;31.30;;;;;;6215645;27;80623;-69
2021/04/16 09:32:01;;;;;;;10.45;5.75;;;23.30;31.60;;;;;;6219702;28;81659;-69
2021/04/16 09:35:01;;;;;;;7.68;5.13;;;23.30;31.60;;;;;;6220077;28;80358;-69
2021/04/16 09:38:02;;;;;;;9.90;5.70;;;23.30;31.70;;;;;;6197568;28;81397;-70
2021/04/16 09:41:03;;;;;;;8.27;4.88;;;23.30;31.70;;;;;;6215659;28;81387;-71
2021/04/16 09:44:03;;;;;;;6.60;4.70;;;23.30;32.10;;;;;;6215835;28;80568;-68
2021/04/16 09:47:04;;;;;;;7.93;5.00;;;23.30;32.50;;;;;;6192756;28;81352;-68
2021/04/16 09:50:04;;;;;;;10.07;5.60;;;23.30;34.10;;;;;;6192927;28;80462;-68
2021/04/16 09:53:05;;;;;;;9.35;5.45;;;23.40;33.50;;;;;;6219626;28;83493;-69
2021/04/16 09:56:08;;;;;;;9.07;5.80;;;23.30;33.80;;;;;;6217321;28;81686;-67
2021/04/16 09:59:08;;;;;;;9.63;5.50;;;23.40;34.70;;;;;;6203277;28;83386;-69
2021/04/16 10:02:09;;;;;;;16.73;6.38;;;23.40;35.70;;;;;;6196117;28;80692;-68
2021/04/16 10:05:09;;;;;;;10.35;6.35;;;23.30;34.90;;;;;;6222805;27;80996;-67
2021/04/16 10:08:10;;;;;;;11.30;6.00;;;23.30;35.90;;;;;;6197399;28;81698;-67
2021/04/16 10:11:10;;;;;;;8.98;5.63;;;23.30;36.00;;;;;;6201060;27;81091;-68
2021/04/16 10:14:11;;;;;;;12.57;6.55;;;23.40;36.00;;;;;;6195658;28;81465;-70
2021/04/16 10:17:11;;;;;;;9.27;6.53;;;23.40;36.90;;;;;;6197182;28;80622;-70
2021/04/16 10:20:14;;;;;;;12.68;6.80;;;23.30;37.70;;;;;;6196849;28;80812;-71
2021/04/16 10:23:14;;;;;;;17.45;8.40;;;23.40;36.90;;;;;;6216640;28;80772;-73
2021/04/16 11:01:15;;;;;;;11.52;6.32;;;23.40;36.50;;;;;;6199423;28;80528;-71
2021/04/16 12:38:34;;;;;;;8.98;5.45;;;23.20;35.10;;;;;;6226026;27;81529;-67
2021/04/16 12:41:37;;;;;;;8.98;4.90;;;23.20;34.90;;;;;;6203211;28;80835;-67
2021/04/16 12:44:38;;;;;;;7.97;5.55;;;23.30;34.90;;;;;;6202654;28;81550;-66
2021/04/16 12:47:39;;;;;;;9.13;5.93;;;23.30;34.80;;;;;;6212120;27;81787;-67
2021/04/16 12:50:39;;;;;;;7.70;4.95;;;23.20;34.50;;;;;;6204545;27;80841;-66
2021/04/16 12:53:40;;;;;;;7.43;5.10;;;23.30;34.50;;;;;;6203038;28;80668;-66
2021/04/16 12:56:40;;;;;;;9.18;5.57;;;23.30;34.30;;;;;;6218691;27;81807;-67
2021/04/16 12:59:41;;;;;;;8.80;5.35;;;23.30;34.30;;;;;;6196937;28;84570;-66
2021/04/16 13:02:41;;;;;;;8.68;5.57;;;23.30;34.10;;;;;;6194856;28;83029;-65
2021/04/16 13:05:42;;;;;;;10.23;5.45;;;23.30;34.00;;;;;;6192362;28;80901;-68
2021/04/16 13:08:42;;;;;;;9.63;5.35;;;23.40;34.00;;;;;;6202491;28;81524;-68
2021/04/16 13:11:43;;;;;;;7.65;5.10;;;23.40;34.00;;;;;;6212303;28;80903;-68
2021/04/16 13:14:43;;;;;;;7.18;4.55;;;23.30;33.90;;;;;;6187803;28;80670;-66
2021/04/16 13:17:44;;;;;;;8.77;5.25;;;23.40;33.80;;;;;;6209653;28;80423;-66
2021/04/16 13:20:45;;;;;;;9.63;5.45;;;23.40;33.90;;;;;;6216663;28;81408;-66
2021/04/16 13:23:45;;;;;;;7.10;4.95;;;23.40;34.00;;;;;;6198248;28;81520;-66
2021/04/16 13:26:46;;;;;;;7.78;5.45;;;23.40;33.90;;;;;;6211665;28;82521;-67
2021/04/16 13:29:46;;;;;;;8.00;5.55;;;23.40;33.80;;;;;;6187921;28;80614;-68
2021/04/16 13:32:47;;;;;;;9.60;5.03;;;23.40;33.70;;;;;;6194862;27;80986;-65
2021/04/16 13:35:48;;;;;;;10.02;5.93;;;23.40;33.80;;;;;;6196791;28;83075;-70
2021/04/16 13:38:49;;;;;;;8.48;5.28;;;23.40;33.70;;;;;;6208238;28;80965;-67
2021/04/16 13:41:49;;;;;;;9.77;5.55;;;23.40;33.70;;;;;;6210960;27;80284;-70
2021/04/16 13:44:50;;;;;;;9.60;5.40;;;23.50;34.20;;;;;;6200718;27;81040;-70
2021/04/16 13:47:51;;;;;;;7.88;5.45;;;23.50;34.40;;;;;;6199197;28;80561;-71
2021/04/16 13:50:51;;;;;;;9.38;5.30;;;23.40;34.20;;;;;;6200265;27;80966;-70
2021/04/16 13:53:52;;;;;;;26.90;8.75;;;23.50;34.60;;;;;;6201147;28;81724;-70
2021/04/16 13:56:52;;;;;;;13.95;6.20;;;23.50;35.00;;;;;;6196170;27;80787;-70
2021/04/16 13:59:53;;;;;;;14.82;6.90;;;23.50;34.10;;;;;;6197103;28;80797;-69
2021/04/16 14:02:53;;;;;;;16.38;7.28;;;23.50;34.00;;;;;;6199012;28;82056;-67
2021/04/16 14:05:54;;;;;;;20.15;7.68;;;23.50;34.20;;;;;;6214103;28;80638;-70
2021/04/16 14:08:55;;;;;;;26.05;8.30;;;23.50;34.20;;;;;;6213937;28;80874;-70
2021/04/16 14:11:55;;;;;;;24.55;8.65;;;23.50;34.00;;;;;;6195797;28;83611;-71
2021/04/16 14:14:57;;;;;;;22.50;7.40;;;23.50;34.60;;;;;;6199182;28;81082;-70
2021/04/16 14:17:57;;;;;;;18.23;7.60;;;23.50;34.70;;;;;;6210582;27;81690;-70
2021/04/16 14:20:58;;;;;;;14.10;7.32;;;23.40;34.40;;;;;;6208890;28;80600;-70
2021/04/16 14:23:58;;;;;;;18.83;7.90;;;23.40;34.10;;;;;;6222841;28;83237;-68
2021/04/16 14:26:59;;;;;;;18.40;7.30;;;23.40;34.60;;;;;;6212727;28;81729;-68
2021/04/16 14:30:00;;;;;;;17.83;8.63;;;23.40;34.70;;;;;;6194209;28;81248;-70
2021/04/16 14:33:00;;;;;;;15.82;6.97;;;23.40;34.80;;;;;;6193657;28;81754;-69
2021/04/16 14:36:01;;;;;;;19.77;7.40;;;23.40;35.00;;;;;;6187227;28;81631;-70
2021/04/16 14:39:01;;;;;;;17.17;6.65;;;23.40;34.80;;;;;;6199273;28;81028;-70
2021/04/16 14:42:02;;;;;;;21.48;8.25;;;23.40;34.70;;;;;;6215546;28;81936;-69
2021/04/16 14:45:02;;;;;;;16.65;6.82;;;23.40;34.40;;;;;;6201505;28;80832;-70
2021/04/16 14:48:03;;;;;;;17.55;7.75;;;23.40;34.00;;;;;;6189622;27;80661;-71
2021/04/16 14:51:03;;;;;;;15.70;7.22;;;23.40;34.80;;;;;;6201385;28;82858;-69
2021/04/16 14:54:04;;;;;;;16.95;7.05;;;23.40;35.10;;;;;;6186165;28;81828;-71
2021/04/16 14:57:05;;;;;;;14.45;6.22;;;23.40;35.30;;;;;;6203677;28;80730;-70
2021/04/16 15:00:05;;;;;;;10.80;6.10;;;23.40;34.90;;;;;;6201995;28;80649;-71
2021/04/16 15:03:06;;;;;;;12.85;7.10;;;23.40;34.70;;;;;;6193229;28;81340;-71
2021/04/16 15:06:06;;;;;;;13.07;6.05;;;23.40;35.60;;;;;;6199829;28;80748;-71
2021/04/16 15:09:07;;;;;;;10.13;6.28;;;23.40;35.70;;;;;;6207565;28;80705;-71
2021/04/16 15:12:07;;;;;;;14.55;7.07;;;23.30;35.20;;;;;;6220016;28;80464;-71
2021/04/16 15:15:08;;;;;;;13.27;6.85;;;23.30;34.90;;;;;;6231915;27;83200;-71
2021/04/16 15:18:08;;;;;;;12.50;6.32;;;23.30;35.10;;;;;;6200632;27;80292;-71
2021/04/16 15:21:09;;;;;;;9.02;5.65;;;23.30;35.20;;;;;;6196342;28;80766;-70
2021/04/16 15:24:10;;;;;;;11.20;6.25;;;23.30;35.70;;;;;;6200860;28;80930;-69
2021/04/16 15:27:10;;;;;;;13.25;6.45;;;23.30;35.60;;;;;;6200664;28;80830;-69
2021/04/16 15:30:11;;;;;;;11.07;5.35;;;23.30;35.80;;;;;;6203467;28;80924;-69
2021/04/16 15:33:11;;;;;;;11.32;5.53;;;23.30;35.90;;;;;;6209724;28;80878;-71
2021/04/16 15:46:18;;;;;;;9.48;5.30;;;23.30;37.40;;;;;;6221410;28;80715;-70
2021/04/16 15:49:18;;;;;;;10.63;5.50;;;23.20;37.60;;;;;;6208330;27;81683;-69
2021/04/16 15:52:19;;;;;;;9.57;5.30;;;23.20;37.50;;;;;;6221147;27;80950;-71
2021/04/16 15:55:19;;;;;;;10.52;5.88;;;23.30;37.80;;;;;;6202682;27;81143;-73
2021/04/16 15:58:20;;;;;;;8.85;5.03;;;23.30;37.80;;;;;;6217880;28;80828;-72
2021/04/16 16:01:20;;;;;;;14.68;6.10;;;23.30;37.00;;;;;;6207194;28;80886;-73
2021/04/16 16:04:21;;;;;;;11.52;5.15;;;23.30;37.80;;;;;;6215896;28;81045;-74
2021/04/16 16:07:21;;;;;;;9.85;5.50;;;23.30;36.50;;;;;;6208486;27;80683;-71
2021/04/16 16:10:22;;;;;;;9.30;5.68;;;23.30;36.50;;;;;;6201306;28;82828;-73
2021/04/16 16:13:22;;;;;;;7.72;5.32;;;23.30;36.30;;;;;;6197167;28;80488;-71
2021/04/16 16:16:23;;;;;;;8.43;4.93;;;23.30;36.30;;;;;;6200185;28;81795;-75
2021/04/16 16:19:24;;;;;;;9.85;5.47;;;23.20;36.40;;;;;;6208092;28;80331;-70
2021/04/16 16:22:24;;;;;;;9.82;5.13;;;23.30;36.70;;;;;;6221441;27;80347;-71
2021/04/16 16:25:25;;;;;;;9.63;5.30;;;23.30;36.60;;;;;;6207389;27;80843;-67
2021/04/16 16:28:26;;;;;;;9.30;5.53;;;23.30;37.00;;;;;;6204140;28;80473;-71
2021/04/16 16:31:26;;;;;;;9.13;5.50;;;23.20;36.70;;;;;;6201450;28;81390;-69
2021/04/16 16:34:29;;;;;;;10.05;5.47;;;23.20;37.00;;;;;;6187509;27;81799;-68
2021/04/16 16:37:29;;;;;;;10.38;5.60;;;23.20;37.70;;;;;;6198862;28;80886;-70
2021/04/16 16:40:30;;;;;;;6.93;5.10;;;23.30;37.00;;;;;;6195777;28;80994;-69
2021/04/16 16:43:30;;;;;;;9.45;5.32;;;23.30;36.60;;;;;;6191932;28;81677;-70
2021/04/16 16:46:31;;;;;;;9.02;6.05;;;23.30;36.40;;;;;;6200291;28;80860;-69
2021/04/16 16:49:31;;;;;;;9.20;5.63;;;23.30;36.20;;;;;;6199856;27;81088;-69
2021/04/16 16:52:34;;;;;;;9.85;5.40;;;23.30;37.50;;;;;;6202789;28;88541;-70
2021/04/16 16:55:35;;;;;;;9.77;5.78;;;23.30;37.30;;;;;;6200941;28;81352;-74
2021/04/16 16:58:35;;;;;;;11.77;5.57;;;23.20;37.10;;;;;;6203053;28;82312;-72
2021/04/16 17:01:36;;;;;;;7.97;5.30;;;23.20;36.70;;;;;;6176806;27;80971;-72
2021/04/16 17:04:37;;;;;;;9.32;5.72;;;23.30;36.50;;;;;;6219612;28;81644;-74
2021/04/16 17:07:40;;;;;;;9.23;5.97;;;23.30;36.50;;;;;;6201189;28;80834;-72
2021/04/16 17:10:40;;;;;;;10.25;5.85;;;23.30;36.30;;;;;;6196879;28;81068;-70
2021/04/16 17:13:41;;;;;;;8.68;5.60;;;23.20;36.90;;;;;;6187075;27;80939;-70
2021/04/16 17:16:41;;;;;;;9.75;5.88;;;23.30;36.10;;;;;;6220178;28;83285;-69
2021/04/16 17:19:42;;;;;;;9.57;5.80;;;23.30;36.30;;;;;;6223120;28;81013;-70
2021/04/16 17:22:42;;;;;;;9.98;5.65;;;23.30;35.70;;;;;;6219893;28;80451;-70
2021/04/16 17:25:43;;;;;;;8.30;5.30;;;23.20;35.70;;;;;;6223413;27;83274;-70
2021/04/16 17:28:44;;;;;;;9.77;6.35;;;23.20;36.10;;;;;;6204914;27;81486;-69
2021/04/16 17:31:44;;;;;;;9.52;6.25;;;23.20;36.10;;;;;;6201961;28;81004;-68
2021/04/16 17:34:45;;;;;;;9.43;5.63;;;23.20;35.60;;;;;;6196678;27;80636;-71
2021/04/16 17:37:45;;;;;;;12.63;6.25;;;23.20;36.10;;;;;;6195283;27;80366;-68
2021/04/16 17:40:46;;;;;;;8.77;5.70;;;23.20;36.60;;;;;;6201823;28;80654;-70
2021/04/16 17:43:47;;;;;;;7.78;5.90;;;23.20;36.70;;;;;;6220968;28;80657;-73
2021/04/16 17:46:48;;;;;;;13.13;5.95;;;23.20;36.90;;;;;;6200298;27;80960;-70
2021/04/16 17:49:49;;;;;;;12.05;6.88;;;23.30;36.80;;;;;;6200688;28;80412;-70
2021/04/16 17:52:49;;;;;;;13.10;6.32;;;23.20;36.60;;;;;;6208558;28;80795;-71
2021/04/16 17:55:50;;;;;;;9.57;6.43;;;23.30;36.80;;;;;;6193941;27;80511;-71